sensor_id;sensor_type;location;lat;lon;timestamp;pressure;altitude;pressure_sealevel;temperature;humidity
30302;BME280;17111;52.130;5.028;2023-04-26T00:01:30;102064.47;;;18.18;45.37
30302;BME280;17111;52.130;5.028;2023-04-26T00:03:56;102054.84;;;18.15;45.52
30302;BME280;17111;52.130;5.028;2023-04-26T00:06:23;102060.34;;;18.14;45.68
30302;BME280;17111;52.130;5.028;2023-04-26T00:08:50;102053.38;;;18.11;45.71
30302;BME280;17111;52.130;5.028;2023-04-26T00:11:17;102063.28;;;18.11;45.69
30302;BME280;17111;52.130;5.028;2023-04-26T00:13:43;102052.66;;;18.09;45.89
30302;BME280;17111;52.130;5.028;2023-04-26T00:16:10;102061.56;;;18.10;45.49
30302;BME280;17111;52.130;5.028;2023-04-26T00:18:38;102068.88;;;18.08;45.75
30302;BME280;17111;52.130;5.028;2023-04-26T00:21:05;102059.97;;;18.07;45.56
30302;BME280;17111;52.130;5.028;2023-04-26T00:23:32;102061.81;;;18.07;45.91
30302;BME280;17111;52.130;5.028;2023-04-26T00:25:58;102061.69;;;18.08;45.60
30302;BME280;17111;52.130;5.028;2023-04-26T00:28:25;102051.69;;;18.10;45.91
30302;BME280;17111;52.130;5.028;2023-04-26T00:30:52;102064.72;;;18.15;45.81
30302;BME280;17111;52.130;5.028;2023-04-26T00:33:18;102058.97;;;18.19;45.69
30302;BME280;17111;52.130;5.028;2023-04-26T00:35:45;102064.09;;;18.22;45.68
30302;BME280;17111;52.130;5.028;2023-04-26T00:38:11;102057.50;;;18.27;45.10
30302;BME280;17111;52.130;5.028;2023-04-26T00:40:38;102060.91;;;18.29;45.04
30302;BME280;17111;52.130;5.028;2023-04-26T00:43:05;102070.41;;;18.33;45.55
30302;BME280;17111;52.130;5.028;2023-04-26T00:45:32;102068.72;;;18.32;45.32
30302;BME280;17111;52.130;5.028;2023-04-26T00:48:00;102063.34;;;18.32;45.36
30302;BME280;17111;52.130;5.028;2023-04-26T00:50:28;102061.66;;;18.31;45.51
30302;BME280;17111;52.130;5.028;2023-04-26T00:52:56;102059.34;;;18.26;45.16
30302;BME280;17111;52.130;5.028;2023-04-26T00:55:23;102058.72;;;18.22;45.71
30302;BME280;17111;52.130;5.028;2023-04-26T00:57:52;102058.28;;;18.17;45.50
30302;BME280;17111;52.130;5.028;2023-04-26T01:00:19;102054.00;;;18.15;45.39
30302;BME280;17111;52.130;5.028;2023-04-26T01:02:45;102054.13;;;18.13;45.54
30302;BME280;17111;52.130;5.028;2023-04-26T01:05:12;102051.69;;;18.10;45.67
30302;BME280;17111;52.130;5.028;2023-04-26T01:07:39;102052.78;;;18.08;45.34
30302;BME280;17111;52.130;5.028;2023-04-26T01:10:06;102050.47;;;18.03;45.74
30302;BME280;17111;52.130;5.028;2023-04-26T01:12:37;102050.72;;;18.00;45.78
30302;BME280;17111;52.130;5.028;2023-04-26T01:15:05;102054.84;;;17.93;45.56
30302;BME280;17111;52.130;5.028;2023-04-26T01:17:32;102062.66;;;17.85;45.76
30302;BME280;17111;52.130;5.028;2023-04-26T01:19:59;102060.63;;;17.77;45.80
30302;BME280;17111;52.130;5.028;2023-04-26T01:22:26;102063.88;;;17.69;46.06
30302;BME280;17111;52.130;5.028;2023-04-26T01:24:54;102060.97;;;17.61;46.17
30302;BME280;17111;52.130;5.028;2023-04-26T01:27:21;102061.56;;;17.54;46.33
30302;BME280;17111;52.130;5.028;2023-04-26T01:29:48;102065.81;;;17.45;46.29
30302;BME280;17111;52.130;5.028;2023-04-26T01:32:14;102067.38;;;17.36;47.11
30302;BME280;17111;52.130;5.028;2023-04-26T01:34:41;102063.56;;;17.27;46.88
30302;BME280;17111;52.130;5.028;2023-04-26T01:37:08;102062.34;;;17.20;46.56
30302;BME280;17111;52.130;5.028;2023-04-26T01:39:34;102066.47;;;17.13;47.05
30302;BME280;17111;52.130;5.028;2023-04-26T01:42:02;102058.19;;;17.05;47.34
30302;BME280;17111;52.130;5.028;2023-04-26T01:44:30;102056.94;;;16.98;47.61
30302;BME280;17111;52.130;5.028;2023-04-26T01:46:56;102051.19;;;16.91;47.76
30302;BME280;17111;52.130;5.028;2023-04-26T01:49:23;102054.22;;;16.87;48.31
30302;BME280;17111;52.130;5.028;2023-04-26T01:51:49;102058.22;;;16.81;48.03
30302;BME280;17111;52.130;5.028;2023-04-26T01:54:16;102054.06;;;16.77;48.13
30302;BME280;17111;52.130;5.028;2023-04-26T01:56:43;102053.44;;;16.73;48.45
30302;BME280;17111;52.130;5.028;2023-04-26T01:59:09;102056.63;;;16.78;48.18
30302;BME280;17111;52.130;5.028;2023-04-26T02:01:36;102058.59;;;16.88;47.83
30302;BME280;17111;52.130;5.028;2023-04-26T02:04:03;102054.97;;;17.00;47.88
30302;BME280;17111;52.130;5.028;2023-04-26T02:06:30;102059.28;;;17.14;47.26
30302;BME280;17111;52.130;5.028;2023-04-26T02:08:57;102064.56;;;17.26;47.15
30302;BME280;17111;52.130;5.028;2023-04-26T02:11:24;102059.94;;;17.40;46.83
30302;BME280;17111;52.130;5.028;2023-04-26T02:13:52;102053.75;;;17.50;47.26
30302;BME280;17111;52.130;5.028;2023-04-26T02:16:19;102055.69;;;17.60;46.44
30302;BME280;17111;52.130;5.028;2023-04-26T02:18:46;102053.25;;;17.68;46.32
30302;BME280;17111;52.130;5.028;2023-04-26T02:21:16;102055.47;;;17.74;46.63
30302;BME280;17111;52.130;5.028;2023-04-26T02:23:45;102047.09;;;17.79;46.04
30302;BME280;17111;52.130;5.028;2023-04-26T02:26:12;102053.06;;;17.82;45.95
30302;BME280;17111;52.130;5.028;2023-04-26T02:28:39;102051.22;;;17.83;45.98
30302;BME280;17111;52.130;5.028;2023-04-26T02:31:07;102052.94;;;17.84;45.73
30302;BME280;17111;52.130;5.028;2023-04-26T02:33:33;102055.75;;;17.82;46.11
30302;BME280;17111;52.130;5.028;2023-04-26T02:36:04;102052.31;;;17.80;46.08
30302;BME280;17111;52.130;5.028;2023-04-26T02:38:34;102055.97;;;17.79;45.87
30302;BME280;17111;52.130;5.028;2023-04-26T02:41:02;102052.44;;;17.79;45.73
30302;BME280;17111;52.130;5.028;2023-04-26T02:43:29;102045.38;;;17.78;45.90
30302;BME280;17111;52.130;5.028;2023-04-26T02:45:55;102049.03;;;17.76;45.79
30302;BME280;17111;52.130;5.028;2023-04-26T02:48:24;102051.94;;;17.73;46.33
30302;BME280;17111;52.130;5.028;2023-04-26T02:50:51;102044.97;;;17.71;45.79
30302;BME280;17111;52.130;5.028;2023-04-26T02:53:18;102043.38;;;17.68;45.69
30302;BME280;17111;52.130;5.028;2023-04-26T02:55:44;102038.38;;;17.64;45.54
30302;BME280;17111;52.130;5.028;2023-04-26T02:58:11;102042.44;;;17.58;45.69
30302;BME280;17111;52.130;5.028;2023-04-26T03:00:38;102042.88;;;17.52;46.52
30302;BME280;17111;52.130;5.028;2023-04-26T03:03:05;102045.22;;;17.45;45.88
30302;BME280;17111;52.130;5.028;2023-04-26T03:05:32;102039.47;;;17.39;46.39
30302;BME280;17111;52.130;5.028;2023-04-26T03:07:58;102038.25;;;17.32;46.39
30302;BME280;17111;52.130;5.028;2023-04-26T03:10:25;102038.00;;;17.23;46.78
30302;BME280;17111;52.130;5.028;2023-04-26T03:12:51;102040.41;;;17.15;46.76
30302;BME280;17111;52.130;5.028;2023-04-26T03:15:18;102041.84;;;17.08;47.44
30302;BME280;17111;52.130;5.028;2023-04-26T03:17:45;102040.63;;;17.01;47.17
30302;BME280;17111;52.130;5.028;2023-04-26T03:20:11;102037.69;;;16.93;47.45
30302;BME280;17111;52.130;5.028;2023-04-26T03:22:39;102044.47;;;16.86;47.03
30302;BME280;17111;52.130;5.028;2023-04-26T03:25:06;102042.25;;;16.80;47.15
30302;BME280;17111;52.130;5.028;2023-04-26T03:27:33;102042.59;;;16.75;47.14
30302;BME280;17111;52.130;5.028;2023-04-26T03:30:00;102032.34;;;16.69;47.54
30302;BME280;17111;52.130;5.028;2023-04-26T03:32:26;102036.31;;;16.63;47.39
30302;BME280;17111;52.130;5.028;2023-04-26T03:34:53;102039.13;;;16.62;47.25
30302;BME280;17111;52.130;5.028;2023-04-26T03:37:19;102044.00;;;16.68;47.54
30302;BME280;17111;52.130;5.028;2023-04-26T03:39:46;102031.91;;;16.75;48.06
30302;BME280;17111;52.130;5.028;2023-04-26T03:42:12;102031.09;;;16.86;48.00
30302;BME280;17111;52.130;5.028;2023-04-26T03:44:39;102029.31;;;16.97;47.23
30302;BME280;17111;52.130;5.028;2023-04-26T03:47:05;102029.22;;;17.10;46.79
30302;BME280;17111;52.130;5.028;2023-04-26T03:49:32;102022.91;;;17.22;47.25
30302;BME280;17111;52.130;5.028;2023-04-26T03:51:58;102028.38;;;17.32;46.66
30302;BME280;17111;52.130;5.028;2023-04-26T03:54:25;102037.41;;;17.42;46.71
30302;BME280;17111;52.130;5.028;2023-04-26T03:56:52;102036.91;;;17.48;46.27
30302;BME280;17111;52.130;5.028;2023-04-26T03:59:19;102033.78;;;17.55;45.94
30302;BME280;17111;52.130;5.028;2023-04-26T04:01:45;102033.53;;;17.58;46.47
30302;BME280;17111;52.130;5.028;2023-04-26T04:04:12;102027.19;;;17.59;45.82
30302;BME280;17111;52.130;5.028;2023-04-26T04:06:39;102027.91;;;17.61;46.31
30302;BME280;17111;52.130;5.028;2023-04-26T04:09:05;102031.19;;;17.64;45.95
30302;BME280;17111;52.130;5.028;2023-04-26T04:11:32;102026.72;;;17.65;45.95
30302;BME280;17111;52.130;5.028;2023-04-26T04:13:59;102031.19;;;17.64;45.83
30302;BME280;17111;52.130;5.028;2023-04-26T04:16:26;102020.59;;;17.63;45.57
30302;BME280;17111;52.130;5.028;2023-04-26T04:18:53;102022.44;;;17.62;45.83
30302;BME280;17111;52.130;5.028;2023-04-26T04:21:20;102025.22;;;17.61;45.89
30302;BME280;17111;52.130;5.028;2023-04-26T04:23:46;102020.84;;;17.60;45.88
30302;BME280;17111;52.130;5.028;2023-04-26T04:26:13;102025.34;;;17.59;45.37
30302;BME280;17111;52.130;5.028;2023-04-26T04:28:40;102037.91;;;17.59;46.13
30302;BME280;17111;52.130;5.028;2023-04-26T04:31:07;102038.03;;;17.57;45.96
30302;BME280;17111;52.130;5.028;2023-04-26T04:33:35;102041.69;;;17.56;45.41
30302;BME280;17111;52.130;5.028;2023-04-26T04:36:01;102033.63;;;17.56;45.45
30302;BME280;17111;52.130;5.028;2023-04-26T04:38:28;102032.91;;;17.54;45.60
30302;BME280;17111;52.130;5.028;2023-04-26T04:40:55;102038.28;;;17.54;45.39
30302;BME280;17111;52.130;5.028;2023-04-26T04:43:22;102049.97;;;17.53;45.68
30302;BME280;17111;52.130;5.028;2023-04-26T04:45:49;102036.69;;;17.51;45.93
30302;BME280;17111;52.130;5.028;2023-04-26T04:48:15;102040.22;;;17.52;46.15
30302;BME280;17111;52.130;5.028;2023-04-26T04:50:42;102033.03;;;17.52;45.46
30302;BME280;17111;52.130;5.028;2023-04-26T04:53:09;102041.94;;;17.53;46.01
30302;BME280;17111;52.130;5.028;2023-04-26T04:55:35;102040.97;;;17.54;46.16
30302;BME280;17111;52.130;5.028;2023-04-26T04:58:03;102036.59;;;17.53;45.72
30302;BME280;17111;52.130;5.028;2023-04-26T05:00:29;102047.41;;;17.51;45.94
30302;BME280;17111;52.130;5.028;2023-04-26T05:02:56;102035.97;;;17.49;45.75
30302;BME280;17111;52.130;5.028;2023-04-26T05:05:23;102035.34;;;17.46;45.92
30302;BME280;17111;52.130;5.028;2023-04-26T05:07:49;102043.63;;;17.43;45.55
30302;BME280;17111;52.130;5.028;2023-04-26T05:10:16;102043.84;;;17.40;45.86
30302;BME280;17111;52.130;5.028;2023-04-26T05:12:42;102044.13;;;17.37;46.20
30302;BME280;17111;52.130;5.028;2023-04-26T05:15:09;102045.91;;;17.36;46.26
30302;BME280;17111;52.130;5.028;2023-04-26T05:17:36;102044.59;;;17.31;45.88
30302;BME280;17111;52.130;5.028;2023-04-26T05:20:02;102043.50;;;17.33;46.23
30302;BME280;17111;52.130;5.028;2023-04-26T05:22:32;102049.22;;;17.40;46.38
30302;BME280;17111;52.130;5.028;2023-04-26T05:25:01;102057.66;;;17.46;46.11
30302;BME280;17111;52.130;5.028;2023-04-26T05:27:29;102055.34;;;17.53;45.68
30302;BME280;17111;52.130;5.028;2023-04-26T05:29:56;102060.22;;;17.59;45.79
30302;BME280;17111;52.130;5.028;2023-04-26T05:32:22;102059.84;;;17.64;46.12
30302;BME280;17111;52.130;5.028;2023-04-26T05:34:49;102062.16;;;17.68;45.86
30302;BME280;17111;52.130;5.028;2023-04-26T05:37:16;102055.56;;;17.72;46.07
30302;BME280;17111;52.130;5.028;2023-04-26T05:39:42;102051.00;;;17.74;45.80
30302;BME280;17111;52.130;5.028;2023-04-26T05:42:09;102057.94;;;17.77;45.49
30302;BME280;17111;52.130;5.028;2023-04-26T05:44:36;102058.66;;;17.79;45.64
30302;BME280;17111;52.130;5.028;2023-04-26T05:47:02;102061.94;;;17.83;45.77
30302;BME280;17111;52.130;5.028;2023-04-26T05:49:29;102062.66;;;17.85;45.64
30302;BME280;17111;52.130;5.028;2023-04-26T05:51:58;102057.06;;;17.88;45.55
30302;BME280;17111;52.130;5.028;2023-04-26T05:54:25;102063.19;;;17.90;45.65
30302;BME280;17111;52.130;5.028;2023-04-26T05:56:52;102064.88;;;17.91;45.61
30302;BME280;17111;52.130;5.028;2023-04-26T05:59:19;102062.19;;;17.91;45.28
30302;BME280;17111;52.130;5.028;2023-04-26T06:01:46;102063.03;;;17.91;45.44
30302;BME280;17111;52.130;5.028;2023-04-26T06:04:13;102059.50;;;17.91;45.17
30302;BME280;17111;52.130;5.028;2023-04-26T06:06:40;102059.50;;;17.91;45.50
30302;BME280;17111;52.130;5.028;2023-04-26T06:09:06;102057.81;;;17.90;45.12
30302;BME280;17111;52.130;5.028;2023-04-26T06:11:33;102059.66;;;17.89;45.55
30302;BME280;17111;52.130;5.028;2023-04-26T06:14:00;102063.28;;;17.88;45.21
30302;BME280;17111;52.130;5.028;2023-04-26T06:16:27;102070.47;;;17.88;45.30
30302;BME280;17111;52.130;5.028;2023-04-26T06:18:53;102067.78;;;17.88;45.68
30302;BME280;17111;52.130;5.028;2023-04-26T06:21:20;102076.81;;;17.87;45.22
30302;BME280;17111;52.130;5.028;2023-04-26T06:23:46;102073.28;;;17.86;45.27
30302;BME280;17111;52.130;5.028;2023-04-26T06:26:13;102078.75;;;17.85;45.30
30302;BME280;17111;52.130;5.028;2023-04-26T06:28:40;102081.44;;;17.85;45.45
30302;BME280;17111;52.130;5.028;2023-04-26T06:31:07;102076.06;;;17.85;45.66
30302;BME280;17111;52.130;5.028;2023-04-26T06:33:34;102083.28;;;17.84;45.54
30302;BME280;17111;52.130;5.028;2023-04-26T06:36:01;102089.63;;;17.83;45.62
30302;BME280;17111;52.130;5.028;2023-04-26T06:38:27;102083.28;;;17.84;45.53
30302;BME280;17111;52.130;5.028;2023-04-26T06:40:54;102082.44;;;17.84;45.40
30302;BME280;17111;52.130;5.028;2023-04-26T06:43:21;102085.97;;;17.84;45.59
30302;BME280;17111;52.130;5.028;2023-04-26T06:45:48;102088.63;;;17.84;45.36
30302;BME280;17111;52.130;5.028;2023-04-26T06:48:15;102092.31;;;17.83;45.42
30302;BME280;17111;52.130;5.028;2023-04-26T06:50:41;102090.47;;;17.84;45.63
30302;BME280;17111;52.130;5.028;2023-04-26T06:53:08;102086.94;;;17.83;45.36
30302;BME280;17111;52.130;5.028;2023-04-26T06:55:34;102090.47;;;17.84;45.55
30302;BME280;17111;52.130;5.028;2023-04-26T06:58:01;102094.00;;;17.84;45.68
30302;BME280;17111;52.130;5.028;2023-04-26T07:00:28;102093.16;;;17.84;45.72
30302;BME280;17111;52.130;5.028;2023-04-26T07:02:55;102093.16;;;17.84;45.91
30302;BME280;17111;52.130;5.028;2023-04-26T07:05:22;102088.63;;;17.84;45.60
30302;BME280;17111;52.130;5.028;2023-04-26T07:07:49;102093.16;;;17.84;45.62
30302;BME280;17111;52.130;5.028;2023-04-26T07:10:16;102087.78;;;17.84;45.59
30302;BME280;17111;52.130;5.028;2023-04-26T07:12:42;102088.63;;;17.84;45.39
30302;BME280;17111;52.130;5.028;2023-04-26T07:15:09;102088.78;;;17.83;45.70
30302;BME280;17111;52.130;5.028;2023-04-26T07:17:36;102087.91;;;17.82;45.60
30302;BME280;17111;52.130;5.028;2023-04-26T07:20:03;102090.59;;;17.82;45.86
30302;BME280;17111;52.130;5.028;2023-04-26T07:22:30;102090.72;;;17.81;45.58
30302;BME280;17111;52.130;5.028;2023-04-26T07:24:57;102089.00;;;17.80;45.86
30302;BME280;17111;52.130;5.028;2023-04-26T07:27:23;102090.72;;;17.81;46.04
30302;BME280;17111;52.130;5.028;2023-04-26T07:29:53;102093.53;;;17.79;45.93
30302;BME280;17111;52.130;5.028;2023-04-26T07:32:20;102093.66;;;17.78;46.03
30302;BME280;17111;52.130;5.028;2023-04-26T07:34:47;102095.78;;;17.72;45.93
30302;BME280;17111;52.130;5.028;2023-04-26T07:37:13;102094.31;;;17.68;45.86
30302;BME280;17111;52.130;5.028;2023-04-26T07:39:40;102097.28;;;17.65;46.62
30302;BME280;17111;52.130;5.028;2023-04-26T07:42:06;102103.72;;;17.63;46.54
30302;BME280;17111;52.130;5.028;2023-04-26T07:44:33;102108.34;;;17.61;46.44
30302;BME280;17111;52.130;5.028;2023-04-26T07:46:59;102096.03;;;17.58;46.51
30302;BME280;17111;52.130;5.028;2023-04-26T07:49:26;102107.75;;;17.57;46.50
30302;BME280;17111;52.130;5.028;2023-04-26T07:51:52;102108.69;;;17.56;46.70
30302;BME280;17111;52.130;5.028;2023-04-26T07:54:20;102117.00;;;17.53;46.98
30302;BME280;17111;52.130;5.028;2023-04-26T07:56:47;102112.50;;;17.54;46.29
30302;BME280;17111;52.130;5.028;2023-04-26T07:59:13;102112.72;;;17.50;46.40
30302;BME280;17111;52.130;5.028;2023-04-26T08:01:40;102112.84;;;17.49;46.71
30302;BME280;17111;52.130;5.028;2023-04-26T08:04:06;102118.31;;;17.47;46.78
30302;BME280;17111;52.130;5.028;2023-04-26T08:06:33;102114.91;;;17.45;46.71
30302;BME280;17111;52.130;5.028;2023-04-26T08:09:00;102117.69;;;17.44;47.24
30302;BME280;17111;52.130;5.028;2023-04-26T08:11:26;102122.19;;;17.43;46.86
30302;BME280;17111;52.130;5.028;2023-04-26T08:13:53;102121.34;;;17.43;46.72
30302;BME280;17111;52.130;5.028;2023-04-26T08:16:20;102114.28;;;17.42;46.85
30302;BME280;17111;52.130;5.028;2023-04-26T08:18:47;102117.69;;;17.44;47.25
30302;BME280;17111;52.130;5.028;2023-04-26T08:21:13;102106.13;;;17.43;46.71
30302;BME280;17111;52.130;5.028;2023-04-26T08:23:40;102101.59;;;17.44;46.79
30302;BME280;17111;52.130;5.028;2023-04-26T08:26:07;102115.00;;;17.44;47.29
30302;BME280;17111;52.130;5.028;2023-04-26T08:28:33;102118.53;;;17.44;46.85
30302;BME280;17111;52.130;5.028;2023-04-26T08:31:01;102110.41;;;17.46;47.27
30302;BME280;17111;52.130;5.028;2023-04-26T08:33:27;102117.31;;;17.48;47.02
30302;BME280;17111;52.130;5.028;2023-04-26T08:35:54;102119.91;;;17.50;46.90
30302;BME280;17111;52.130;5.028;2023-04-26T08:38:21;102121.38;;;17.54;46.72
30302;BME280;17111;52.130;5.028;2023-04-26T08:40:48;102120.16;;;17.58;47.24
30302;BME280;17111;52.130;5.028;2023-04-26T08:43:16;102118.22;;;17.60;46.37
30302;BME280;17111;52.130;5.028;2023-04-26T08:45:44;102118.72;;;17.65;46.48
30302;BME280;17111;52.130;5.028;2023-04-26T08:48:12;102119.44;;;17.67;46.62
30302;BME280;17111;52.130;5.028;2023-04-26T08:50:44;102117.38;;;17.71;46.72
30302;BME280;17111;52.130;5.028;2023-04-26T08:53:14;102115.34;;;17.74;46.50
30302;BME280;17111;52.130;5.028;2023-04-26T08:55:49;102100.84;;;17.77;46.34
30302;BME280;17111;52.130;5.028;2023-04-26T08:58:17;102109.38;;;17.82;46.21
30302;BME280;17111;52.130;5.028;2023-04-26T09:00:44;102101.09;;;17.85;45.97
30302;BME280;17111;52.130;5.028;2023-04-26T09:03:11;102104.34;;;17.89;45.93
30302;BME280;17111;52.130;5.028;2023-04-26T09:05:40;102102.44;;;17.91;46.19
30302;BME280;17111;52.130;5.028;2023-04-26T09:08:15;102104.88;;;17.94;45.79
30302;BME280;17111;52.130;5.028;2023-04-26T09:10:43;102100.13;;;17.97;45.43
30302;BME280;17111;52.130;5.028;2023-04-26T09:13:09;102103.50;;;17.99;45.67
30302;BME280;17111;52.130;5.028;2023-04-26T09:15:36;102097.16;;;18.00;45.60
30302;BME280;17111;52.130;5.028;2023-04-26T09:18:17;102107.78;;;18.02;45.57
30302;BME280;17111;52.130;5.028;2023-04-26T09:20:45;102104.97;;;18.04;45.42
30302;BME280;17111;52.130;5.028;2023-04-26T09:23:12;102104.13;;;18.03;45.54
30302;BME280;17111;52.130;5.028;2023-04-26T09:25:38;102104.25;;;18.02;45.50
30302;BME280;17111;52.130;5.028;2023-04-26T09:28:18;102107.06;;;18.00;45.58
30302;BME280;17111;52.130;5.028;2023-04-26T09:30:46;102117.91;;;17.98;45.53
30302;BME280;17111;52.130;5.028;2023-04-26T09:33:13;102119.00;;;17.96;45.45
30302;BME280;17111;52.130;5.028;2023-04-26T09:35:41;102116.56;;;17.93;45.55
30302;BME280;17111;52.130;5.028;2023-04-26T09:38:12;102120.44;;;17.89;46.12
30302;BME280;17111;52.130;5.028;2023-04-26T09:40:47;102122.56;;;17.85;45.72
30302;BME280;17111;52.130;5.028;2023-04-26T09:43:16;102126.44;;;17.81;45.88
30302;BME280;17111;52.130;5.028;2023-04-26T09:48:16;102136.91;;;17.73;46.12
30302;BME280;17111;52.130;5.028;2023-04-26T09:50:44;102132.63;;;17.70;46.19
30302;BME280;17111;52.130;5.028;2023-04-26T09:53:35;102127.72;;;17.64;46.37
30302;BME280;17111;52.130;5.028;2023-04-26T09:56:13;102122.47;;;17.63;46.91
30302;BME280;17111;52.130;5.028;2023-04-26T10:01:14;102123.84;;;17.57;46.86
30302;BME280;17111;52.130;5.028;2023-04-26T10:03:42;102125.75;;;17.55;47.11
30302;BME280;17111;52.130;5.028;2023-04-26T10:06:11;102120.53;;;17.54;46.65
30302;BME280;17111;52.130;5.028;2023-04-26T10:08:38;102122.47;;;17.51;46.67
30302;BME280;17111;52.130;5.028;2023-04-26T10:11:05;102124.28;;;17.51;46.52
30302;BME280;17111;52.130;5.028;2023-04-26T10:13:41;102119.91;;;17.50;46.48
30302;BME280;17111;52.130;5.028;2023-04-26T10:16:08;102119.06;;;17.49;46.55
30302;BME280;17111;52.130;5.028;2023-04-26T10:18:36;102118.09;;;17.50;46.89
30302;BME280;17111;52.130;5.028;2023-04-26T10:21:16;102119.06;;;17.49;46.63
30302;BME280;17111;52.130;5.028;2023-04-26T10:23:46;102115.28;;;17.52;46.90
30302;BME280;17111;52.130;5.028;2023-04-26T10:26:45;102118.81;;;17.52;46.58
30302;BME280;17111;52.130;5.028;2023-04-26T10:29:13;102115.03;;;17.55;46.79
30302;BME280;17111;52.130;5.028;2023-04-26T10:34:36;102119.19;;;17.59;46.50
30302;BME280;17111;52.130;5.028;2023-04-26T10:37:15;102112.75;;;17.62;46.83
30302;BME280;17111;52.130;5.028;2023-04-26T10:39:44;102120.44;;;17.66;46.43
30302;BME280;17111;52.130;5.028;2023-04-26T10:44:54;102110.94;;;17.73;46.37
30302;BME280;17111;52.130;5.028;2023-04-26T10:47:32;102111.44;;;17.79;46.37
30302;BME280;17111;52.130;5.028;2023-04-26T10:50:06;102113.75;;;17.83;46.25
30302;BME280;17111;52.130;5.028;2023-04-26T10:53:03;102113.38;;;17.88;45.55
30302;BME280;17111;52.130;5.028;2023-04-26T10:55:40;102113.16;;;17.91;45.67
30302;BME280;17111;52.130;5.028;2023-04-26T11:01:07;102106.44;;;17.96;45.44
30302;BME280;17111;52.130;5.028;2023-04-26T11:03:37;102103.66;;;17.98;45.26
30302;BME280;17111;52.130;5.028;2023-04-26T11:06:10;102097.31;;;17.99;45.60
30302;BME280;17111;52.130;5.028;2023-04-26T11:08:41;102097.06;;;18.02;45.85
30302;BME280;17111;52.130;5.028;2023-04-26T11:11:11;102093.25;;;18.05;45.59
30302;BME280;17111;52.130;5.028;2023-04-26T11:13:40;102093.16;;;18.06;45.63
30302;BME280;17111;52.130;5.028;2023-04-26T11:16:09;102091.31;;;18.07;45.21
30302;BME280;17111;52.130;5.028;2023-04-26T11:18:38;102078.75;;;18.07;45.73
30302;BME280;17111;52.130;5.028;2023-04-26T11:21:05;102084.88;;;18.09;45.22
30302;BME280;17111;52.130;5.028;2023-04-26T11:23:32;102081.19;;;18.10;45.62
30302;BME280;17111;52.130;5.028;2023-04-26T11:26:04;102069.47;;;18.11;45.59
30302;BME280;17111;52.130;5.028;2023-04-26T11:28:32;102082.75;;;18.13;45.55
30302;BME280;17111;52.130;5.028;2023-04-26T11:31:03;102078.28;;;18.13;45.40
30302;BME280;17111;52.130;5.028;2023-04-26T11:33:30;102088.13;;;18.13;45.49
30302;BME280;17111;52.130;5.028;2023-04-26T11:35:59;102085.44;;;18.13;45.30
30302;BME280;17111;52.130;5.028;2023-04-26T11:38:27;102080.97;;;18.13;45.52
30302;BME280;17111;52.130;5.028;2023-04-26T11:40:58;102077.41;;;18.13;45.58
30302;BME280;17111;52.130;5.028;2023-04-26T11:43:35;102074.59;;;18.14;45.63
30302;BME280;17111;52.130;5.028;2023-04-26T11:46:03;102069.25;;;18.14;45.38
30302;BME280;17111;52.130;5.028;2023-04-26T11:48:31;102079.97;;;18.14;45.45
30302;BME280;17111;52.130;5.028;2023-04-26T11:51:00;102083.50;;;18.15;45.07
30302;BME280;17111;52.130;5.028;2023-04-26T11:53:39;102074.59;;;18.14;45.29
30302;BME280;17111;52.130;5.028;2023-04-26T11:56:17;102065.56;;;18.15;45.09
30302;BME280;17111;52.130;5.028;2023-04-26T11:58:45;102076.06;;;18.18;45.18
30302;BME280;17111;52.130;5.028;2023-04-26T12:01:19;102074.22;;;18.19;45.04
30302;BME280;17111;52.130;5.028;2023-04-26T12:03:49;102077.63;;;18.21;45.01
30302;BME280;17111;52.130;5.028;2023-04-26T12:06:17;102081.91;;;18.23;45.55
30302;BME280;17111;52.130;5.028;2023-04-26T12:08:49;102078.22;;;18.24;44.99
30302;BME280;17111;52.130;5.028;2023-04-26T12:11:17;102073.72;;;18.25;45.38
30302;BME280;17111;52.130;5.028;2023-04-26T12:13:44;102070.69;;;18.30;45.37
30302;BME280;17111;52.130;5.028;2023-04-26T12:16:12;102075.06;;;18.31;45.42
30302;BME280;17111;52.130;5.028;2023-04-26T12:18:53;102076.75;;;18.32;45.44
30302;BME280;17111;52.130;5.028;2023-04-26T12:21:20;102079.44;;;18.32;45.50
30302;BME280;17111;52.130;5.028;2023-04-26T12:23:47;102077.50;;;18.34;45.41
30302;BME280;17111;52.130;5.028;2023-04-26T12:26:14;102078.22;;;18.36;44.98
30302;BME280;17111;52.130;5.028;2023-04-26T12:28:41;102083.34;;;18.39;45.14
30302;BME280;17111;52.130;5.028;2023-04-26T12:31:08;102081.38;;;18.41;45.26
30302;BME280;17111;52.130;5.028;2023-04-26T12:33:35;102079.56;;;18.41;45.29
30302;BME280;17111;52.130;5.028;2023-04-26T12:36:08;102088.47;;;18.42;45.47
30302;BME280;17111;52.130;5.028;2023-04-26T12:38:35;102092.84;;;18.43;44.98
30302;BME280;17111;52.130;5.028;2023-04-26T12:41:03;102087.47;;;18.43;45.45
30302;BME280;17111;52.130;5.028;2023-04-26T12:43:30;102080.28;;;18.43;45.02
30302;BME280;17111;52.130;5.028;2023-04-26T12:45:56;102079.44;;;18.43;45.17
30302;BME280;17111;52.130;5.028;2023-04-26T12:48:23;102084.28;;;18.49;45.04
30302;BME280;17111;52.130;5.028;2023-04-26T12:50:49;102082.34;;;18.51;45.07
30302;BME280;17111;52.130;5.028;2023-04-26T12:53:16;102083.03;;;18.53;45.06
30302;BME280;17111;52.130;5.028;2023-04-26T12:55:43;102079.41;;;18.54;45.45
30302;BME280;17111;52.130;5.028;2023-04-26T12:58:10;102082.94;;;18.55;45.10
30302;BME280;17111;52.130;5.028;2023-04-26T13:00:37;102078.41;;;18.55;44.76
30302;BME280;17111;52.130;5.028;2023-04-26T13:03:03;102074.75;;;18.56;44.74
30302;BME280;17111;52.130;5.028;2023-04-26T13:05:30;102074.75;;;18.56;44.60
30302;BME280;17111;52.130;5.028;2023-04-26T13:07:57;102082.78;;;18.56;45.08